createdAt,value
2023-03-29T00:01:34.892Z,3.86
2023-03-29T00:04:04.984Z,3.90
2023-03-29T00:06:33.367Z,3.97
2023-03-29T00:09:01.969Z,3.82
2023-03-29T00:11:32.578Z,3.88
2023-03-29T00:14:00.328Z,3.78
2023-03-29T00:16:36.466Z,3.77
2023-03-29T00:19:05.018Z,3.71
2023-03-29T00:21:32.862Z,3.66
2023-03-29T00:24:00.484Z,3.55
2023-03-29T00:26:28.060Z,3.58
2023-03-29T00:28:58.080Z,3.48
2023-03-29T00:31:27.628Z,3.48
2023-03-29T00:33:55.360Z,3.48
2023-03-29T00:36:23.443Z,3.52
2023-03-29T00:38:51.137Z,3.53
2023-03-29T00:41:18.720Z,3.42
2023-03-29T00:43:56.260Z,3.36
2023-03-29T00:46:26.066Z,3.22
2023-03-29T00:48:57.910Z,3.11
2023-03-29T00:51:30.170Z,3.05
2023-03-29T00:54:01.598Z,3.05
2023-03-29T00:56:35.335Z,3.11
2023-03-29T00:59:08.034Z,3.16
2023-03-29T01:02:02.279Z,3.28
2023-03-29T01:04:40.665Z,3.24
2023-03-29T01:07:18.620Z,3.29
2023-03-29T01:09:54.233Z,3.21
2023-03-29T01:12:28.100Z,3.12
2023-03-29T01:15:09.242Z,3.06
2023-03-29T01:17:40.670Z,3.11
2023-03-29T01:20:20.340Z,3.12
2023-03-29T01:23:06.700Z,3.06
2023-03-29T01:26:11.707Z,3.11
2023-03-29T01:28:50.949Z,3.05
2023-03-29T01:31:32.759Z,2.99
2023-03-29T01:34:12.787Z,2.92
2023-03-29T01:36:50.170Z,3.08
2023-03-29T01:39:19.066Z,3.16
2023-03-29T01:41:58.489Z,3.10
2023-03-29T01:44:41.956Z,2.79
2023-03-29T01:47:42.402Z,2.77
2023-03-29T01:50:12.547Z,2.63
2023-03-29T01:52:51.165Z,2.53
2023-03-29T01:55:24.089Z,2.63
2023-03-29T01:57:56.038Z,2.75
2023-03-29T02:00:27.770Z,2.74
2023-03-29T02:03:00.559Z,2.74
2023-03-29T02:05:31.634Z,2.73
2023-03-29T02:08:02.786Z,2.84
2023-03-29T02:10:34.130Z,2.79
2023-03-29T02:13:02.021Z,2.81
2023-03-29T02:15:29.656Z,2.77
2023-03-29T02:17:57.353Z,2.63
2023-03-29T02:20:32.166Z,2.53
2023-03-29T02:23:18.721Z,2.47
2023-03-29T02:25:47.235Z,2.43
2023-03-29T02:28:15.966Z,2.27
2023-03-29T02:31:07.910Z,2.08
2023-03-29T02:33:52.243Z,2.05
2023-03-29T02:36:24.955Z,2.11
2023-03-29T02:38:56.121Z,2.01
2023-03-29T02:41:25.878Z,1.97
2023-03-29T02:43:57.153Z,1.82
2023-03-29T02:46:26.577Z,1.89
2023-03-29T02:48:56.190Z,1.94
2023-03-29T02:51:32.158Z,1.90
2023-03-29T02:54:09.427Z,1.84
2023-03-29T02:56:56.380Z,1.75
2023-03-29T02:59:24.352Z,1.69
2023-03-29T03:01:52.793Z,1.71
2023-03-29T03:04:21.048Z,1.73
2023-03-29T03:06:49.940Z,1.79
2023-03-29T03:09:18.155Z,1.73
2023-03-29T03:11:47.918Z,1.74
2023-03-29T03:14:16.808Z,1.78
2023-03-29T03:16:44.892Z,1.81
2023-03-29T03:19:14.260Z,1.73
2023-03-29T03:21:43.250Z,1.75
2023-03-29T03:24:11.000Z,1.80
2023-03-29T03:26:39.545Z,1.77
2023-03-29T03:29:08.062Z,1.74
2023-03-29T03:31:55.726Z,1.79
2023-03-29T03:34:46.224Z,1.81
2023-03-29T03:37:15.556Z,1.75
2023-03-29T03:39:43.531Z,1.71
2023-03-29T03:42:11.748Z,1.82
2023-03-29T03:44:42.738Z,1.80
2023-03-29T03:47:40.095Z,1.78
2023-03-29T03:50:28.290Z,1.78
2023-03-29T03:52:56.130Z,1.73
2023-03-29T03:55:25.514Z,1.75
2023-03-29T03:58:17.669Z,1.82
2023-03-29T04:00:48.357Z,1.82
2023-03-29T04:03:32.604Z,1.90
2023-03-29T04:06:02.370Z,2.01
2023-03-29T04:08:42.326Z,1.81
2023-03-29T04:11:28.444Z,1.77
2023-03-29T04:13:57.715Z,1.83
2023-03-29T04:16:42.509Z,1.72
2023-03-29T04:19:36.636Z,1.70
2023-03-29T04:22:04.302Z,1.50
2023-03-29T04:24:32.204Z,1.52
2023-03-29T04:27:19.020Z,1.62
2023-03-29T04:29:48.947Z,1.67
2023-03-29T04:32:24.917Z,1.71
2023-03-29T04:34:58.386Z,1.70
2023-03-29T04:37:26.126Z,1.78
2023-03-29T04:39:54.833Z,1.76
2023-03-29T04:42:24.375Z,1.89
2023-03-29T04:44:53.367Z,1.89
2023-03-29T04:47:32.761Z,1.80
2023-03-29T04:50:13.139Z,1.79
2023-03-29T04:52:45.563Z,1.85
2023-03-29T04:55:13.480Z,1.85
2023-03-29T04:57:53.521Z,1.89
2023-03-29T05:00:31.402Z,1.91
2023-03-29T05:03:11.544Z,1.88
2023-03-29T05:05:43.792Z,1.86
2023-03-29T05:08:13.340Z,1.73
2023-03-29T05:11:02.065Z,1.69
2023-03-29T05:13:29.921Z,1.64
2023-03-29T05:15:57.765Z,1.63
2023-03-29T05:18:26.298Z,1.68
2023-03-29T05:20:54.233Z,1.68
2023-03-29T05:23:22.942Z,1.71
2023-03-29T05:26:19.511Z,1.68
2023-03-29T05:28:53.973Z,1.66
2023-03-29T05:31:22.936Z,1.73
2023-03-29T05:33:55.330Z,1.72
2023-03-29T05:36:23.501Z,1.72
2023-03-29T05:38:51.817Z,1.64
2023-03-29T05:41:24.806Z,1.66
2023-03-29T05:44:11.252Z,1.62
2023-03-29T05:46:41.993Z,1.70
2023-03-29T05:49:13.583Z,1.77
2023-03-29T05:52:11.718Z,1.82
2023-03-29T05:54:39.823Z,1.81
2023-03-29T05:57:07.694Z,2.02
2023-03-29T05:59:37.094Z,2.11
2023-03-29T06:02:06.050Z,2.13
2023-03-29T06:04:36.669Z,2.07
2023-03-29T06:07:23.594Z,2.04
2023-03-29T06:10:18.077Z,1.93
2023-03-29T06:12:50.275Z,1.82
2023-03-29T06:15:22.204Z,1.80
2023-03-29T06:18:00.329Z,1.98
2023-03-29T06:20:33.352Z,2.00
2023-03-29T06:23:08.112Z,2.03
2023-03-29T06:25:40.595Z,2.01
2023-03-29T06:28:08.317Z,2.09
2023-03-29T06:30:36.443Z,2.09
2023-03-29T06:33:08.457Z,1.99
2023-03-29T06:35:59.661Z,2.04
2023-03-29T06:38:34.136Z,2.03
2023-03-29T06:41:13.635Z,1.89
2023-03-29T06:43:59.724Z,1.89
2023-03-29T06:46:34.475Z,1.93
2023-03-29T06:49:06.585Z,2.00
2023-03-29T06:51:43.314Z,1.92
2023-03-29T06:54:11.731Z,1.93
2023-03-29T06:56:49.124Z,2.00
2023-03-29T06:59:18.962Z,2.06
2023-03-29T07:01:57.174Z,2.10
2023-03-29T07:04:47.678Z,2.15
2023-03-29T07:07:53.587Z,2.29
2023-03-29T07:10:38.364Z,2.36
2023-03-29T07:13:21.377Z,2.37
2023-03-29T07:15:51.544Z,2.38
2023-03-29T07:18:36.679Z,2.55
2023-03-29T07:21:05.444Z,2.41
2023-03-29T07:23:33.527Z,2.44
2023-03-29T07:26:02.402Z,2.42
2023-03-29T07:28:30.600Z,2.42
2023-03-29T07:31:06.863Z,2.47
2023-03-29T07:33:40.840Z,2.38
2023-03-29T07:36:10.180Z,2.39
2023-03-29T07:38:45.485Z,2.38
2023-03-29T07:41:19.213Z,2.27
2023-03-29T07:43:51.941Z,2.21
2023-03-29T07:46:25.167Z,2.27
2023-03-29T07:48:56.728Z,2.09
2023-03-29T07:51:24.740Z,2.30
2023-03-29T07:54:03.432Z,2.29
2023-03-29T07:56:51.192Z,2.42
2023-03-29T07:59:24.997Z,2.38
2023-03-29T08:02:12.930Z,2.27
2023-03-29T08:04:46.932Z,2.41
2023-03-29T08:07:19.120Z,2.56
2023-03-29T08:09:52.771Z,2.44
2023-03-29T08:12:25.179Z,2.37
2023-03-29T08:14:55.498Z,2.53
2023-03-29T08:17:28.004Z,2.47
2023-03-29T08:19:56.033Z,2.50
2023-03-29T08:22:25.358Z,2.47
2023-03-29T08:25:08.464Z,2.63
2023-03-29T08:27:44.830Z,2.84
2023-03-29T08:30:15.934Z,2.94
2023-03-29T08:32:46.938Z,3.00
2023-03-29T08:35:16.830Z,3.03
2023-03-29T08:38:10.672Z,2.87
2023-03-29T08:40:38.480Z,2.74
2023-03-29T08:43:32.560Z,2.55
2023-03-29T08:46:53.202Z,2.56
2023-03-29T08:49:29.257Z,2.62
2023-03-29T08:52:01.960Z,2.68
2023-03-29T08:54:45.074Z,2.83
2023-03-29T08:57:27.214Z,2.81
2023-03-29T09:00:02.368Z,2.83
2023-03-29T09:02:42.504Z,2.84
2023-03-29T09:05:38.071Z,2.78
2023-03-29T09:08:19.892Z,2.89
2023-03-29T09:11:31.472Z,2.83
2023-03-29T09:14:05.076Z,2.87
2023-03-29T09:16:52.469Z,2.81
2023-03-29T09:19:31.580Z,2.92
2023-03-29T09:21:59.724Z,2.98
2023-03-29T09:24:52.181Z,3.12
2023-03-29T09:27:30.988Z,3.02
2023-03-29T09:30:26.322Z,3.11
2023-03-29T09:33:08.133Z,2.93
2023-03-29T09:36:17.526Z,3.05
2023-03-29T09:38:51.094Z,2.95
2023-03-29T09:41:35.943Z,2.95
2023-03-29T09:44:27.757Z,2.95
2023-03-29T09:47:17.420Z,3.01
2023-03-29T09:49:50.775Z,3.15
2023-03-29T09:52:21.417Z,3.00
2023-03-29T09:55:04.466Z,2.96
2023-03-29T09:57:41.796Z,3.04
2023-03-29T10:00:11.864Z,3.10
2023-03-29T10:02:52.777Z,2.87
2023-03-29T10:05:26.363Z,2.92
2023-03-29T10:07:54.855Z,3.05
2023-03-29T10:10:34.845Z,2.94
2023-03-29T10:13:13.424Z,2.78
2023-03-29T10:16:07.693Z,2.81
2023-03-29T10:18:42.948Z,2.86
2023-03-29T10:21:17.169Z,2.85
2023-03-29T10:23:46.166Z,2.82
2023-03-29T10:26:25.000Z,2.69
2023-03-29T10:28:57.335Z,2.78
2023-03-29T10:31:25.904Z,2.84
2023-03-29T10:33:57.083Z,2.89
2023-03-29T10:36:27.469Z,2.90
2023-03-29T10:38:58.967Z,2.93
2023-03-29T10:41:28.131Z,2.95
2023-03-29T10:43:56.136Z,3.05
2023-03-29T10:46:29.450Z,3.04
2023-03-29T10:49:01.406Z,3.01
2023-03-29T10:51:32.577Z,3.15
2023-03-29T10:54:01.653Z,3.08
2023-03-29T10:56:40.419Z,2.98
2023-03-29T10:59:23.117Z,2.98
2023-03-29T11:02:15.366Z,2.80
2023-03-29T11:04:48.131Z,2.66
2023-03-29T11:07:34.638Z,2.68
2023-03-29T11:10:04.840Z,2.62
2023-03-29T11:13:00.014Z,2.52
2023-03-29T11:15:33.243Z,2.47
2023-03-29T11:18:19.392Z,2.40
2023-03-29T11:21:11.015Z,2.21
2023-03-29T11:23:48.203Z,2.21
2023-03-29T11:26:24.799Z,2.27
2023-03-29T11:29:20.817Z,2.31
2023-03-29T11:32:10.602Z,2.29
2023-03-29T11:34:47.425Z,2.13
2023-03-29T11:37:24.689Z,2.03
2023-03-29T11:40:25.738Z,2.09
2023-03-29T11:42:58.172Z,2.14
2023-03-29T11:45:32.604Z,2.24
2023-03-29T11:48:02.692Z,2.12
2023-03-29T11:50:45.036Z,2.15
2023-03-29T11:53:20.255Z,2.11
2023-03-29T11:55:51.462Z,2.04
2023-03-29T11:58:42.570Z,2.01
2023-03-29T12:01:20.702Z,2.00
2023-03-29T12:04:03.081Z,1.86
2023-03-29T12:06:41.469Z,1.77
2023-03-29T12:09:38.128Z,1.79
2023-03-29T12:12:33.779Z,1.80
2023-03-29T12:15:03.790Z,1.90
2023-03-29T12:17:40.391Z,2.02
2023-03-29T12:20:18.182Z,1.96
2023-03-29T12:22:51.864Z,1.97
2023-03-29T12:25:26.933Z,1.92
2023-03-29T12:28:20.721Z,2.02
2023-03-29T12:31:09.848Z,1.97
2023-03-29T12:33:46.762Z,2.03
2023-03-29T12:36:50.785Z,2.16
2023-03-29T12:39:49.205Z,2.08
2023-03-29T12:42:59.631Z,2.04
2023-03-29T12:45:50.922Z,1.98
2023-03-29T12:48:22.582Z,2.01
2023-03-29T12:50:52.862Z,2.05
2023-03-29T12:53:36.559Z,2.18
2023-03-29T12:56:08.503Z,2.23
2023-03-29T12:58:38.931Z,2.25
2023-03-29T13:01:27.633Z,2.25
2023-03-29T13:04:15.718Z,2.15
2023-03-29T13:06:46.720Z,2.26
2023-03-29T13:09:29.842Z,2.21
2023-03-29T13:12:04.885Z,2.23
2023-03-29T13:14:57.956Z,2.18
2023-03-29T13:17:38.626Z,2.19
2023-03-29T13:20:52.811Z,2.18
2023-03-29T13:23:23.382Z,2.18
2023-03-29T13:26:12.250Z,2.18
2023-03-29T13:29:14.687Z,2.17
2023-03-29T13:32:16.860Z,2.30
2023-03-29T13:35:04.993Z,2.42
2023-03-29T13:37:40.936Z,2.51
2023-03-29T13:40:47.735Z,2.62
2023-03-29T13:43:21.816Z,2.66
2023-03-29T13:46:06.897Z,2.54
2023-03-29T13:48:37.777Z,2.39
2023-03-29T13:51:27.980Z,2.51
2023-03-29T13:54:02.308Z,2.50
2023-03-29T13:56:40.215Z,2.43
2023-03-29T13:59:19.476Z,2.37
2023-03-29T14:02:00.686Z,2.43
2023-03-29T14:04:38.149Z,2.38
2023-03-29T14:07:08.238Z,2.32
2023-03-29T14:09:42.567Z,2.38
2023-03-29T14:12:14.954Z,2.30
2023-03-29T14:14:56.002Z,2.31
2023-03-29T14:17:29.681Z,2.33
2023-03-29T14:20:00.778Z,2.32
2023-03-29T14:22:37.833Z,2.26
2023-03-29T14:25:17.304Z,2.35
2023-03-29T14:27:45.248Z,2.31
2023-03-29T14:30:21.982Z,2.16
2023-03-29T14:33:14.029Z,2.20
2023-03-29T14:35:41.939Z,2.35
2023-03-29T14:38:13.453Z,2.31
2023-03-29T14:40:46.744Z,2.30
2023-03-29T14:43:19.122Z,2.22
2023-03-29T14:45:47.447Z,2.07
2023-03-29T14:48:16.526Z,2.13
2023-03-29T14:50:46.899Z,2.16
2023-03-29T14:53:21.998Z,2.14
2023-03-29T14:55:52.382Z,2.11
2023-03-29T14:58:34.907Z,2.11
2023-03-29T15:01:13.390Z,2.17
2023-03-29T15:03:56.498Z,2.12
2023-03-29T15:06:26.440Z,2.15
2023-03-29T15:09:05.181Z,2.19
2023-03-29T15:11:34.696Z,2.27
2023-03-29T15:14:08.780Z,2.24
2023-03-29T15:16:45.715Z,2.27
2023-03-29T15:19:17.468Z,2.24
2023-03-29T15:21:51.467Z,2.10
2023-03-29T15:24:25.238Z,2.13
2023-03-29T15:27:16.404Z,2.13
2023-03-29T15:29:46.878Z,2.16
2023-03-29T15:32:23.182Z,2.20
2023-03-29T15:35:05.618Z,2.16
2023-03-29T15:37:33.752Z,2.15
2023-03-29T15:40:07.843Z,2.14
2023-03-29T15:42:37.742Z,2.25
2023-03-29T15:45:06.506Z,2.26
2023-03-29T15:47:34.099Z,2.19
2023-03-29T15:50:02.133Z,2.07
2023-03-29T15:52:29.780Z,2.03
2023-03-29T15:54:57.437Z,2.03
2023-03-29T15:57:25.582Z,1.99
2023-03-29T15:59:53.502Z,2.04
2023-03-29T16:02:24.529Z,2.08
2023-03-29T16:04:52.443Z,2.16
2023-03-29T16:07:21.072Z,2.15
2023-03-29T16:09:49.445Z,2.06
2023-03-29T16:12:20.361Z,1.95
2023-03-29T16:14:49.316Z,2.02
2023-03-29T16:17:16.966Z,2.03
2023-03-29T16:19:49.187Z,2.07
2023-03-29T16:22:17.302Z,2.00
2023-03-29T16:24:44.778Z,2.02
2023-03-29T16:27:14.151Z,1.99
2023-03-29T16:29:41.772Z,1.95
2023-03-29T16:32:10.630Z,2.01
2023-03-29T16:34:38.891Z,2.03
2023-03-29T16:37:06.737Z,1.97
2023-03-29T16:39:35.463Z,1.92
2023-03-29T16:42:02.885Z,1.94
2023-03-29T16:44:33.254Z,1.91
2023-03-29T16:47:03.625Z,1.97
2023-03-29T16:49:32.009Z,1.94
2023-03-29T16:52:01.427Z,1.99
2023-03-29T16:54:31.798Z,1.94
2023-03-29T16:56:59.492Z,1.91
2023-03-29T16:59:27.176Z,2.00
2023-03-29T17:01:54.826Z,1.99
2023-03-29T17:04:22.386Z,1.99
2023-03-29T17:06:50.186Z,1.94
2023-03-29T17:09:18.038Z,1.87
2023-03-29T17:11:46.136Z,1.89
2023-03-29T17:14:13.894Z,1.95
2023-03-29T17:16:42.650Z,1.88
2023-03-29T17:19:10.714Z,1.88
2023-03-29T17:21:39.256Z,1.82
2023-03-29T17:24:07.114Z,1.84
2023-03-29T17:26:34.516Z,1.88
2023-03-29T17:29:02.011Z,1.79
2023-03-29T17:31:30.763Z,1.79
2023-03-29T17:33:58.731Z,1.84
2023-03-29T17:36:28.302Z,1.85
2023-03-29T17:38:56.190Z,1.85
2023-03-29T17:41:24.010Z,1.91
2023-03-29T17:43:53.021Z,1.89
2023-03-29T17:46:23.030Z,1.90
2023-03-29T17:48:53.887Z,1.89
2023-03-29T17:51:23.714Z,1.87
2023-03-29T17:53:52.441Z,1.87
2023-03-29T17:56:22.811Z,1.83
2023-03-29T17:58:50.850Z,1.86
2023-03-29T18:01:20.430Z,1.87
2023-03-29T18:03:49.200Z,1.90
2023-03-29T18:06:20.289Z,1.81
2023-03-29T18:08:48.017Z,1.88
2023-03-29T18:11:22.919Z,1.85
2023-03-29T18:13:52.526Z,1.79
2023-03-29T18:16:22.045Z,1.80
2023-03-29T18:18:50.973Z,1.92
2023-03-29T18:21:18.838Z,1.85
2023-03-29T18:23:48.292Z,1.75
2023-03-29T18:26:16.810Z,1.80
2023-03-29T18:28:47.565Z,1.80
2023-03-29T18:31:16.037Z,1.82
2023-03-29T18:33:44.553Z,1.74
2023-03-29T18:36:13.347Z,1.78
2023-03-29T18:38:43.876Z,1.82
2023-03-29T18:41:14.009Z,1.81
2023-03-29T18:43:43.332Z,1.75
2023-03-29T18:46:11.270Z,1.77
2023-03-29T18:48:41.914Z,1.77
2023-03-29T18:51:11.202Z,1.79
2023-03-29T18:53:42.014Z,1.80
2023-03-29T18:56:10.042Z,1.85
2023-03-29T18:58:37.510Z,1.79
2023-03-29T19:01:06.435Z,1.80
2023-03-29T19:03:35.631Z,1.82
2023-03-29T19:06:04.299Z,1.79
2023-03-29T19:08:36.759Z,1.70
2023-03-29T19:11:07.228Z,1.72
2023-03-29T19:13:35.888Z,1.73
2023-03-29T19:16:04.482Z,1.74
2023-03-29T19:18:32.857Z,1.76
2023-03-29T19:21:00.520Z,1.78
2023-03-29T19:23:28.419Z,1.78
2023-03-29T19:26:01.038Z,1.74
2023-03-29T19:28:29.675Z,1.76
2023-03-29T19:30:59.566Z,1.76
2023-03-29T19:33:29.403Z,1.70
2023-03-29T19:35:57.039Z,1.75
2023-03-29T19:38:24.780Z,1.71
2023-03-29T19:40:52.968Z,1.80
2023-03-29T19:43:20.955Z,1.80
2023-03-29T19:45:50.334Z,1.75
2023-03-29T19:48:23.680Z,1.78
2023-03-29T19:50:52.082Z,1.77
2023-03-29T19:53:21.259Z,1.78
2023-03-29T19:55:49.567Z,1.69
2023-03-29T19:58:18.113Z,1.68
2023-03-29T20:00:46.716Z,1.69
2023-03-29T20:03:15.699Z,1.64
2023-03-29T20:05:43.685Z,1.67
2023-03-29T20:08:11.249Z,1.72
2023-03-29T20:10:38.750Z,1.74
2023-03-29T20:13:06.898Z,1.69
2023-03-29T20:15:35.278Z,1.63
2023-03-29T20:18:03.526Z,1.66
2023-03-29T20:20:31.811Z,1.68
2023-03-29T20:23:04.682Z,1.57
2023-03-29T20:25:36.246Z,1.59
2023-03-29T20:28:04.853Z,1.66
2023-03-29T20:30:33.322Z,1.70
2023-03-29T20:33:04.780Z,1.69
2023-03-29T20:35:32.372Z,1.61
2023-03-29T20:37:59.855Z,1.69
2023-03-29T20:40:30.091Z,1.64
2023-03-29T20:42:57.727Z,1.57
2023-03-29T20:45:25.738Z,1.60
2023-03-29T20:47:57.836Z,1.70
2023-03-29T20:50:26.495Z,1.65
2023-03-29T20:52:55.650Z,1.58
2023-03-29T20:55:24.888Z,1.58
2023-03-29T20:58:12.296Z,1.59
2023-03-29T21:00:40.476Z,1.60
2023-03-29T21:03:09.863Z,1.56
2023-03-29T21:05:37.876Z,1.58
2023-03-29T21:08:05.627Z,1.45
2023-03-29T21:10:33.384Z,1.52
2023-03-29T21:13:02.812Z,1.50
2023-03-29T21:15:36.910Z,1.50
2023-03-29T21:18:07.887Z,1.59
2023-03-29T21:20:37.694Z,1.57
2023-03-29T21:23:05.287Z,1.59
2023-03-29T21:25:35.372Z,1.58
2023-03-29T21:28:02.986Z,1.42
2023-03-29T21:30:32.002Z,1.46
2023-03-29T21:33:00.533Z,1.51
2023-03-29T21:35:28.457Z,1.51
2023-03-29T21:37:55.914Z,1.51
2023-03-29T21:40:23.530Z,1.53
2023-03-29T21:42:51.185Z,1.55
2023-03-29T21:45:19.895Z,1.45
2023-03-29T21:47:47.471Z,1.47
2023-03-29T21:50:16.357Z,1.56
2023-03-29T21:52:44.569Z,1.58
2023-03-29T21:55:12.366Z,1.49
2023-03-29T21:57:40.241Z,1.43
2023-03-29T22:00:11.399Z,1.45
2023-03-29T22:02:41.692Z,1.57
2023-03-29T22:05:09.454Z,1.60
2023-03-29T22:07:38.798Z,1.63
2023-03-29T22:10:11.608Z,1.56
2023-03-29T22:12:39.858Z,1.61
2023-03-29T22:15:11.995Z,1.53
2023-03-29T22:17:42.900Z,1.43
2023-03-29T22:20:14.590Z,1.45
2023-03-29T22:22:51.282Z,1.53
2023-03-29T22:25:19.856Z,1.55
2023-03-29T22:27:48.768Z,1.50
2023-03-29T22:30:17.890Z,1.53
2023-03-29T22:32:45.598Z,1.58
2023-03-29T22:35:13.134Z,1.58
2023-03-29T22:37:43.242Z,1.60
2023-03-29T22:40:13.537Z,1.60
2023-03-29T22:42:41.312Z,1.61
2023-03-29T22:45:09.319Z,1.52
2023-03-29T22:47:36.804Z,1.48
2023-03-29T22:50:04.826Z,1.43
2023-03-29T22:52:33.665Z,1.47
2023-03-29T22:55:01.334Z,1.41
2023-03-29T22:57:31.577Z,1.44
2023-03-29T22:59:59.233Z,1.49
2023-03-29T23:02:26.739Z,1.46
2023-03-29T23:04:55.964Z,1.56
2023-03-29T23:07:23.601Z,1.47
2023-03-29T23:09:51.160Z,1.46
2023-03-29T23:12:20.266Z,1.44
2023-03-29T23:14:48.105Z,1.47
2023-03-29T23:17:19.385Z,1.62
2023-03-29T23:19:48.522Z,1.54
2023-03-29T23:22:16.039Z,1.53
2023-03-29T23:24:46.587Z,1.55
2023-03-29T23:27:14.563Z,1.56
2023-03-29T23:29:42.308Z,1.53
2023-03-29T23:32:10.196Z,1.47
2023-03-29T23:34:37.830Z,1.44
2023-03-29T23:37:13.130Z,1.48
2023-03-29T23:39:41.735Z,1.48
2023-03-29T23:42:09.455Z,1.45
2023-03-29T23:44:37.640Z,1.39
2023-03-29T23:47:06.217Z,1.32
2023-03-29T23:49:34.640Z,1.38
2023-03-29T23:52:02.744Z,1.39
2023-03-29T23:54:31.593Z,1.40
2023-03-29T23:57:02.860Z,1.28
2023-03-29T23:59:31.212Z,1.25
